createdAt,value
2018-07-05T00:01:56.267Z,19.30
2018-07-05T00:04:28.909Z,19.20
2018-07-05T00:07:01.585Z,19.30
2018-07-05T00:09:34.178Z,19.30
2018-07-05T00:12:06.742Z,19.30
2018-07-05T00:14:39.465Z,19.20
2018-07-05T00:17:12.139Z,19.10
2018-07-05T00:19:44.886Z,19.10
2018-07-05T00:22:19.352Z,19.10
2018-07-05T00:27:19.010Z,19.00
2018-07-05T00:29:51.693Z,19.00
2018-07-05T00:32:24.421Z,18.90
2018-07-05T00:34:57.068Z,19.00
2018-07-05T00:37:29.766Z,19.10
2018-07-05T00:40:03.049Z,19.00
2018-07-05T00:42:35.596Z,19.00
2018-07-05T00:45:08.225Z,18.90
2018-07-05T00:47:41.117Z,18.90
2018-07-05T00:50:13.579Z,18.80
2018-07-05T00:52:46.268Z,18.70
2018-07-05T00:55:18.717Z,18.60
2018-07-05T00:57:51.430Z,18.60
2018-07-05T01:00:24.013Z,18.60
2018-07-05T01:02:56.710Z,18.60
2018-07-05T01:05:29.324Z,18.50
2018-07-05T01:08:02.001Z,18.40
2018-07-05T01:10:34.749Z,18.30
2018-07-05T01:13:07.479Z,18.30
2018-07-05T01:15:40.171Z,18.30
2018-07-05T01:18:12.824Z,18.40
2018-07-05T01:20:45.612Z,18.20
2018-07-05T01:23:18.785Z,18.30
2018-07-05T01:25:51.625Z,18.30
2018-07-05T01:28:24.277Z,18.40
2018-07-05T01:30:56.853Z,18.30
2018-07-05T01:33:30.109Z,18.30
2018-07-05T01:36:02.876Z,18.30
2018-07-05T01:38:36.211Z,18.30
2018-07-05T01:41:08.804Z,18.30
2018-07-05T01:43:41.479Z,18.20
2018-07-05T01:46:14.161Z,18.10
2018-07-05T01:48:47.888Z,18.00
2018-07-05T01:51:20.384Z,18.00
2018-07-05T01:53:53.072Z,18.10
2018-07-05T01:56:25.840Z,18.10
2018-07-05T01:58:58.355Z,18.00
2018-07-05T02:01:31.413Z,17.90
2018-07-05T02:04:03.977Z,17.90
2018-07-05T02:06:36.616Z,18.00
2018-07-05T02:09:09.744Z,18.00
2018-07-05T02:11:42.224Z,18.00
2018-07-05T02:14:15.585Z,17.90
2018-07-05T02:16:48.136Z,17.90
2018-07-05T02:19:21.786Z,17.80
2018-07-05T02:21:54.325Z,17.80
2018-07-05T02:24:27.243Z,17.90
2018-07-05T02:26:59.836Z,18.00
2018-07-05T02:29:32.433Z,18.00
2018-07-05T02:32:05.056Z,18.00
2018-07-05T02:34:37.721Z,17.90
2018-07-05T02:37:16.216Z,17.90
2018-07-05T02:39:49.074Z,17.90
2018-07-05T02:42:21.763Z,18.00
2018-07-05T02:44:54.800Z,17.90
2018-07-05T02:47:27.339Z,17.80
2018-07-05T02:50:00.057Z,17.80
2018-07-05T02:52:32.738Z,17.70
2018-07-05T02:55:05.364Z,17.80
2018-07-05T02:57:38.011Z,17.80
2018-07-05T03:00:10.648Z,17.80
2018-07-05T03:02:43.348Z,17.80
2018-07-05T03:05:15.970Z,17.70
2018-07-05T03:07:49.254Z,17.70
2018-07-05T03:10:22.184Z,17.70
2018-07-05T03:12:54.838Z,17.60
2018-07-05T03:15:27.688Z,17.50
2018-07-05T03:18:00.304Z,17.30
2018-07-05T03:20:32.928Z,17.30
2018-07-05T03:23:05.713Z,17.20
2018-07-05T03:25:38.360Z,17.40
2018-07-05T03:28:11.631Z,17.50
2018-07-05T03:30:44.111Z,17.30
2018-07-05T03:33:17.269Z,17.50
2018-07-05T03:35:50.375Z,17.40
2018-07-05T03:38:23.146Z,17.40
2018-07-05T03:40:55.737Z,17.30
2018-07-05T03:43:28.459Z,17.40
2018-07-05T03:46:01.121Z,17.40
2018-07-05T03:48:34.499Z,17.50
2018-07-05T03:51:07.149Z,17.60
2018-07-05T03:53:41.828Z,17.60
2018-07-05T03:56:14.437Z,17.70
2018-07-05T03:58:47.074Z,17.90
2018-07-05T04:01:20.760Z,17.90
2018-07-05T04:03:55.050Z,18.10
2018-07-05T04:06:28.084Z,18.30
2018-07-05T04:09:01.200Z,18.50
2018-07-05T04:11:33.726Z,18.70
2018-07-05T04:14:06.460Z,18.90
2018-07-05T04:16:38.925Z,19.10
2018-07-05T04:19:11.387Z,19.40
2018-07-05T04:21:44.009Z,19.60
2018-07-05T04:24:16.845Z,19.80
2018-07-05T04:26:49.490Z,20.00
2018-07-05T04:29:22.724Z,20.30
2018-07-05T04:31:55.970Z,20.40
2018-07-05T04:34:28.697Z,20.50
2018-07-05T04:37:01.473Z,20.60
2018-07-05T04:39:33.991Z,21.00
2018-07-05T04:42:06.656Z,21.30
2018-07-05T04:44:39.317Z,21.40
2018-07-05T04:47:11.904Z,21.50
2018-07-05T04:49:44.446Z,21.70
2018-07-05T04:52:17.197Z,21.90
2018-07-05T04:54:49.805Z,22.00
2018-07-05T04:57:22.469Z,22.30
2018-07-05T04:59:55.065Z,22.50
2018-07-05T05:02:27.778Z,22.60
2018-07-05T05:05:00.467Z,22.80
2018-07-05T05:07:33.140Z,23.00
2018-07-05T05:10:06.827Z,23.20
2018-07-05T05:12:39.752Z,23.60
2018-07-05T05:15:12.416Z,23.90
2018-07-05T05:17:45.051Z,24.20
2018-07-05T05:20:17.812Z,24.40
2018-07-05T05:22:50.503Z,24.70
2018-07-05T05:25:23.333Z,25.00
2018-07-05T05:27:56.473Z,24.90
2018-07-05T05:30:29.032Z,24.50
2018-07-05T05:33:01.734Z,24.60
2018-07-05T05:35:34.397Z,24.80
2018-07-05T05:38:07.083Z,24.90
2018-07-05T05:40:39.752Z,25.30
2018-07-05T05:43:12.559Z,25.60
2018-07-05T05:45:45.020Z,25.80
2018-07-05T05:48:17.731Z,25.80
2018-07-05T05:50:50.601Z,25.80
2018-07-05T05:53:23.166Z,26.00
2018-07-05T05:55:55.605Z,26.00
2018-07-05T05:58:28.372Z,26.20
2018-07-05T06:01:01.089Z,26.10
2018-07-05T06:03:34.116Z,26.10
2018-07-05T06:06:06.635Z,26.20
2018-07-05T06:08:39.917Z,26.30
2018-07-05T06:11:12.524Z,26.30
2018-07-05T06:13:45.222Z,26.20
2018-07-05T06:16:18.473Z,26.00
2018-07-05T06:18:50.915Z,25.90
2018-07-05T06:21:23.575Z,25.50
2018-07-05T06:23:56.838Z,25.50
2018-07-05T06:26:29.382Z,25.70
2018-07-05T06:29:01.993Z,26.00
2018-07-05T06:31:34.660Z,26.10
2018-07-05T06:34:07.351Z,26.20
2018-07-05T06:36:39.878Z,26.20
2018-07-05T06:39:13.064Z,26.20
2018-07-05T06:41:45.951Z,26.20
2018-07-05T06:44:18.468Z,26.10
2018-07-05T06:46:51.823Z,25.90
2018-07-05T06:49:24.476Z,25.90
2018-07-05T06:51:57.024Z,25.80
2018-07-05T06:54:29.693Z,25.90
2018-07-05T06:57:02.339Z,25.80
2018-07-05T06:59:35.063Z,25.80
2018-07-05T07:02:08.320Z,25.70
2018-07-05T07:04:40.814Z,25.50
2018-07-05T07:07:13.414Z,25.60
2018-07-05T07:09:46.201Z,25.50
2018-07-05T07:12:18.669Z,25.50
2018-07-05T07:14:51.592Z,25.70
2018-07-05T07:17:24.825Z,26.00
2018-07-05T07:19:57.370Z,26.60
2018-07-05T07:22:30.101Z,26.90
2018-07-05T07:25:03.169Z,27.40
2018-07-05T07:27:36.185Z,27.60
2018-07-05T07:30:08.735Z,27.40
2018-07-05T07:32:42.076Z,27.60
2018-07-05T07:35:15.323Z,28.10
2018-07-05T07:37:47.884Z,28.30
2018-07-05T07:40:20.913Z,28.20
2018-07-05T07:42:47.422Z,28.30
2018-07-05T07:45:13.839Z,28.50
2018-07-05T07:47:40.260Z,28.60
2018-07-05T07:50:06.661Z,28.60
2018-07-05T07:52:33.157Z,28.70
2018-07-05T07:54:59.585Z,29.20
2018-07-05T07:57:25.996Z,29.60
2018-07-05T07:59:52.852Z,29.60
2018-07-05T08:02:19.264Z,29.80
2018-07-05T08:04:46.244Z,30.10
2018-07-05T08:07:13.052Z,30.20
2018-07-05T08:09:39.998Z,30.10
2018-07-05T08:12:07.541Z,30.10
2018-07-05T08:14:33.929Z,30.40
2018-07-05T08:17:00.743Z,30.40
2018-07-05T08:19:27.580Z,30.50
2018-07-05T08:21:53.973Z,30.40
2018-07-05T08:24:21.217Z,30.30
2018-07-05T08:26:47.650Z,30.40
2018-07-05T08:29:14.050Z,30.30
2018-07-05T08:31:40.491Z,30.20
2018-07-05T08:34:06.890Z,30.20
2018-07-05T08:36:33.317Z,29.90
2018-07-05T08:39:00.039Z,29.60
2018-07-05T08:41:26.605Z,29.40
2018-07-05T08:43:53.353Z,29.50
2018-07-05T08:46:20.261Z,29.40
2018-07-05T08:48:46.661Z,29.60
2018-07-05T08:51:13.751Z,29.60
2018-07-05T08:53:40.125Z,29.70
2018-07-05T08:56:06.520Z,29.50
2018-07-05T08:58:32.902Z,29.50
2018-07-05T09:00:59.324Z,29.50
2018-07-05T09:03:25.759Z,29.70
2018-07-05T09:05:52.813Z,29.90
2018-07-05T09:08:19.222Z,29.80
2018-07-05T09:10:45.944Z,30.00
2018-07-05T09:13:12.448Z,30.40
2018-07-05T09:15:38.860Z,30.60
2018-07-05T09:18:05.353Z,30.60
2018-07-05T09:22:59.140Z,30.30
2018-07-05T09:25:25.594Z,30.60
2018-07-05T09:27:52.001Z,30.70
2018-07-05T09:30:18.437Z,30.80
2018-07-05T09:32:44.840Z,30.80
2018-07-05T09:35:11.242Z,30.80
2018-07-05T09:37:37.753Z,30.70
2018-07-05T09:40:04.105Z,30.70
2018-07-05T09:42:30.513Z,30.50
2018-07-05T09:44:56.932Z,30.20
2018-07-05T09:47:23.365Z,30.30
2018-07-05T09:49:49.761Z,30.40
2018-07-05T09:52:16.188Z,30.50
2018-07-05T09:54:42.604Z,30.90
2018-07-05T09:57:09.570Z,31.20
2018-07-05T09:59:35.997Z,31.60
2018-07-05T10:02:02.421Z,31.80
2018-07-05T10:04:28.866Z,31.60
2018-07-05T10:06:55.282Z,31.70
2018-07-05T10:09:21.705Z,31.60
2018-07-05T10:11:48.141Z,31.60
2018-07-05T10:14:14.565Z,31.70
2018-07-05T10:16:40.960Z,31.80
2018-07-05T10:19:07.359Z,31.80
2018-07-05T10:21:34.768Z,31.90
2018-07-05T10:24:01.437Z,32.10
2018-07-05T10:26:27.874Z,32.10
2018-07-05T10:29:00.432Z,31.80
2018-07-05T10:31:33.139Z,31.70
2018-07-05T10:33:59.570Z,31.50
2018-07-05T10:36:25.989Z,31.60
2018-07-05T10:38:52.424Z,31.50
2018-07-05T10:41:24.957Z,31.50
2018-07-05T10:43:57.677Z,31.80
2018-07-05T10:46:31.012Z,31.80
2018-07-05T10:49:03.532Z,31.60
2018-07-05T10:51:36.253Z,31.50
2018-07-05T10:54:09.091Z,31.20
2018-07-05T10:56:42.513Z,31.00
2018-07-05T10:59:16.078Z,30.90
2018-07-05T11:01:49.221Z,30.90
2018-07-05T11:04:22.473Z,30.90
2018-07-05T11:06:55.179Z,31.20
2018-07-05T11:09:27.969Z,31.40
2018-07-05T11:12:00.621Z,31.60
2018-07-05T11:14:33.855Z,31.70
2018-07-05T11:17:06.561Z,31.80
2018-07-05T11:19:39.210Z,32.00
2018-07-05T11:22:12.535Z,32.00
2018-07-05T11:24:45.145Z,32.00
2018-07-05T11:27:17.662Z,32.00
2018-07-05T11:29:50.321Z,32.10
2018-07-05T11:32:22.964Z,32.20
2018-07-05T11:34:56.276Z,32.00
2018-07-05T11:37:28.845Z,31.40
2018-07-05T11:40:02.380Z,31.30
2018-07-05T11:42:35.330Z,31.10
2018-07-05T11:45:08.061Z,31.20
2018-07-05T11:47:40.739Z,31.20
2018-07-05T11:50:13.952Z,31.30
2018-07-05T11:52:46.609Z,31.30
2018-07-05T11:55:19.254Z,31.50
2018-07-05T11:57:51.816Z,31.60
2018-07-05T12:00:24.446Z,31.60
2018-07-05T12:02:57.653Z,31.60
2018-07-05T12:05:30.190Z,31.60
2018-07-05T12:08:02.916Z,31.40
2018-07-05T12:10:35.621Z,31.50
2018-07-05T12:13:08.332Z,31.70
2018-07-05T12:15:40.977Z,31.70
2018-07-05T12:18:13.656Z,31.60
2018-07-05T12:20:46.303Z,31.40
2018-07-05T12:23:19.903Z,31.20
2018-07-05T12:25:53.032Z,31.40
2018-07-05T12:28:26.277Z,31.60
2018-07-05T12:30:59.485Z,31.80
2018-07-05T12:33:32.216Z,31.80
2018-07-05T12:36:04.850Z,32.00
2018-07-05T12:38:37.321Z,32.10
2018-07-05T12:41:09.987Z,32.00
2018-07-05T12:43:42.628Z,32.10
2018-07-05T12:46:15.373Z,32.10
2018-07-05T12:48:47.840Z,32.20
2018-07-05T12:51:21.251Z,32.10
2018-07-05T12:53:53.817Z,31.90
2018-07-05T12:56:26.443Z,31.70
2018-07-05T12:58:59.105Z,31.80
2018-07-05T13:01:31.701Z,31.70
2018-07-05T13:04:04.474Z,31.80
2018-07-05T13:06:37.128Z,31.90
2018-07-05T13:09:09.878Z,31.80
2018-07-05T13:11:42.473Z,31.90
2018-07-05T13:14:15.186Z,31.90
2018-07-05T13:16:47.849Z,31.80
2018-07-05T13:19:20.576Z,31.60
2018-07-05T13:21:53.193Z,31.70
2018-07-05T13:24:25.861Z,31.70
2018-07-05T13:26:58.564Z,31.60
2018-07-05T13:29:31.317Z,31.50
2018-07-05T13:32:03.944Z,31.50
2018-07-05T13:34:37.267Z,31.50
2018-07-05T13:37:09.912Z,31.50
2018-07-05T13:39:42.673Z,31.60
2018-07-05T13:42:15.349Z,31.60
2018-07-05T13:44:48.295Z,31.70
2018-07-05T13:47:21.112Z,31.50
2018-07-05T13:49:53.783Z,31.50
2018-07-05T13:52:26.921Z,31.00
2018-07-05T13:54:59.440Z,30.90
2018-07-05T13:57:32.197Z,30.90
2018-07-05T14:00:04.831Z,31.10
2018-07-05T14:02:37.556Z,31.20
2018-07-05T14:05:10.277Z,31.10
2018-07-05T14:07:42.985Z,31.00
2018-07-05T14:10:15.650Z,30.90
2018-07-05T14:12:48.324Z,30.80
2018-07-05T14:15:20.990Z,30.80
2018-07-05T14:17:53.655Z,30.70
2018-07-05T14:20:26.459Z,30.70
2018-07-05T14:22:59.069Z,30.60
2018-07-05T14:25:31.717Z,30.60
2018-07-05T14:28:04.929Z,30.60
2018-07-05T14:30:37.424Z,30.80
2018-07-05T14:33:10.083Z,30.70
2018-07-05T14:35:42.842Z,30.80
2018-07-05T14:38:15.574Z,30.90
2018-07-05T14:40:48.293Z,31.00
2018-07-05T14:43:21.009Z,31.00
2018-07-05T14:45:53.648Z,31.00
2018-07-05T14:48:26.467Z,31.00
2018-07-05T14:50:59.069Z,30.90
2018-07-05T14:53:31.745Z,30.70
2018-07-05T14:56:04.452Z,30.70
2018-07-05T14:58:37.139Z,30.70
2018-07-05T15:01:09.804Z,30.60
2018-07-05T15:03:42.473Z,30.50
2018-07-05T15:06:15.169Z,30.50
2018-07-05T15:08:47.801Z,30.40
2018-07-05T15:11:20.933Z,30.50
2018-07-05T15:13:53.889Z,30.40
2018-07-05T15:16:26.523Z,30.20
2018-07-05T15:18:59.550Z,30.40
2018-07-05T15:21:32.109Z,30.30
2018-07-05T15:24:05.014Z,30.30
2018-07-05T15:26:37.712Z,30.40
2018-07-05T15:29:10.365Z,30.30
2018-07-05T15:31:43.120Z,30.30
2018-07-05T16:20:13.392Z,30.30
2018-07-05T16:22:46.121Z,26.30
2018-07-05T16:25:18.751Z,26.00
2018-07-05T16:27:51.388Z,26.00
2018-07-05T16:30:24.095Z,25.90
2018-07-05T16:32:57.950Z,25.90
2018-07-05T16:35:30.993Z,25.90
2018-07-05T16:38:03.996Z,25.80
2018-07-05T16:40:37.148Z,25.70
2018-07-05T16:43:09.668Z,25.60
2018-07-05T16:45:42.364Z,25.60
2018-07-05T16:48:15.009Z,25.70
2018-07-05T16:50:47.737Z,25.70
2018-07-05T16:53:20.328Z,25.50
2018-07-05T16:55:52.984Z,25.50
2018-07-05T16:58:25.622Z,25.40
2018-07-05T17:00:58.507Z,25.30
2018-07-05T17:03:31.100Z,25.20
2018-07-05T17:06:04.330Z,25.20
2018-07-05T17:08:36.981Z,25.10
2018-07-05T17:11:09.611Z,25.10
2018-07-05T17:13:42.251Z,25.10
2018-07-05T17:16:14.937Z,25.00
2018-07-05T17:18:47.658Z,25.00
2018-07-05T17:21:20.304Z,25.00
2018-07-05T17:23:53.013Z,24.90
2018-07-05T17:26:25.739Z,24.90
2018-07-05T17:28:58.166Z,24.90
2018-07-05T17:31:30.817Z,25.00
2018-07-05T17:34:03.477Z,25.00
2018-07-05T17:36:36.191Z,25.00
2018-07-05T17:39:08.953Z,25.00
2018-07-05T17:41:42.225Z,25.00
2018-07-05T17:44:14.748Z,24.80
2018-07-05T17:46:47.822Z,24.80
2018-07-05T17:49:20.403Z,24.60
2018-07-05T17:51:52.888Z,24.70
2018-07-05T17:54:25.373Z,24.70
2018-07-05T17:56:58.389Z,24.50
2018-07-05T17:59:31.655Z,24.50
2018-07-05T18:02:04.250Z,24.40
2018-07-05T18:04:36.933Z,24.30
2018-07-05T18:07:09.612Z,24.20
2018-07-05T18:09:42.200Z,24.20
2018-07-05T18:12:14.797Z,24.30
2018-07-05T18:14:48.050Z,24.40
2018-07-05T18:17:21.811Z,24.20
2018-07-05T18:19:54.466Z,24.10
2018-07-05T18:22:27.160Z,24.10
2018-07-05T18:27:27.312Z,24.00
2018-07-05T18:30:00.742Z,23.90
2018-07-05T18:32:33.400Z,23.80
2018-07-05T18:35:06.618Z,23.70
2018-07-05T18:37:39.309Z,23.60
2018-07-05T18:40:12.262Z,23.50
2018-07-05T18:42:44.922Z,23.50
2018-07-05T18:45:17.698Z,23.40
2018-07-05T18:47:50.250Z,23.40
2018-07-05T18:50:22.912Z,23.20
2018-07-05T18:52:55.692Z,23.20
2018-07-05T18:55:28.411Z,23.20
2018-07-05T18:58:01.196Z,23.10
2018-07-05T19:00:33.674Z,23.10
2018-07-05T19:03:07.280Z,23.10
2018-07-05T19:05:40.049Z,23.00
2018-07-05T19:08:12.663Z,22.90
2018-07-05T19:10:45.426Z,22.80
2018-07-05T19:13:18.477Z,22.60
2018-07-05T19:15:51.070Z,22.60
2018-07-05T19:18:23.746Z,22.50
2018-07-05T19:23:23.421Z,22.40
2018-07-05T19:25:56.330Z,22.20
2018-07-05T19:28:28.880Z,22.20
2018-07-05T19:31:01.492Z,22.10
2018-07-05T19:33:34.078Z,22.00
2018-07-05T19:36:07.595Z,22.00
2018-07-05T19:38:40.232Z,21.90
2018-07-05T19:41:12.757Z,21.80
2018-07-05T19:43:45.343Z,21.80
2018-07-05T19:46:18.597Z,21.60
2018-07-05T19:48:51.197Z,21.60
2018-07-05T19:51:23.939Z,21.60
2018-07-05T19:53:56.674Z,21.60
2018-07-05T19:56:29.468Z,21.70
2018-07-05T19:59:02.058Z,21.60
2018-07-05T20:01:34.639Z,21.60
2018-07-05T20:04:07.230Z,21.50
2018-07-05T20:06:40.493Z,21.50
2018-07-05T20:09:13.619Z,21.50
2018-07-05T20:11:52.147Z,21.50
2018-07-05T20:14:25.625Z,21.50
2018-07-05T20:16:58.389Z,21.40
2018-07-05T20:19:31.017Z,21.50
2018-07-05T20:22:06.449Z,21.50
2018-07-05T20:24:39.087Z,21.70
2018-07-05T20:27:12.249Z,21.70
2018-07-05T20:29:44.685Z,21.70
2018-07-05T20:32:18.019Z,21.80
2018-07-05T20:34:51.076Z,21.90
2018-07-05T20:39:51.767Z,21.90
2018-07-05T20:42:24.419Z,22.00
2018-07-05T20:54:42.184Z,21.90
2018-07-05T20:57:14.853Z,21.70
2018-07-05T20:59:47.524Z,21.60
2018-07-05T21:02:20.862Z,21.70
2018-07-05T21:04:53.337Z,21.60
2018-07-05T21:07:26.034Z,21.60
2018-07-05T21:09:58.815Z,21.50
2018-07-05T21:12:32.068Z,21.50
2018-07-05T21:15:04.565Z,21.40
2018-07-05T21:17:37.235Z,21.30
2018-07-05T21:20:10.068Z,21.30
2018-07-05T21:22:42.768Z,21.20
2018-07-05T21:25:15.441Z,21.10
2018-07-05T21:27:48.164Z,21.10
2018-07-05T21:32:47.630Z,21.00
2018-07-05T21:35:20.378Z,20.90
2018-07-05T21:37:53.036Z,20.90
2018-07-05T21:40:25.800Z,20.80
2018-07-05T21:42:58.632Z,20.80
2018-07-05T21:45:31.947Z,20.90
2018-07-05T21:48:04.708Z,21.00
2018-07-05T21:50:37.336Z,20.90
2018-07-05T21:53:09.934Z,20.90
2018-07-05T21:55:42.639Z,21.00
2018-07-05T21:58:15.390Z,21.00
2018-07-05T22:00:47.903Z,21.10
2018-07-05T22:03:20.477Z,21.00
2018-07-05T22:05:53.256Z,21.20
2018-07-05T22:08:25.809Z,21.20
2018-07-05T22:10:58.747Z,21.20
2018-07-05T22:13:31.670Z,21.00
2018-07-05T22:16:04.208Z,21.00
2018-07-05T22:18:42.642Z,21.00
2018-07-05T22:21:19.066Z,20.90
2018-07-05T22:23:57.403Z,20.80
2018-07-05T22:26:31.071Z,20.90
2018-07-05T22:29:09.456Z,21.00
2018-07-05T22:31:42.090Z,20.90
2018-07-05T22:34:14.712Z,20.90
2018-07-05T22:36:47.434Z,20.90
2018-07-05T22:39:20.051Z,20.90
2018-07-05T22:41:53.285Z,20.80
2018-07-05T22:44:25.884Z,20.80
2018-07-05T22:46:58.741Z,20.80
2018-07-05T22:49:31.176Z,20.70
2018-07-05T22:52:04.069Z,20.70
2018-07-05T22:54:36.998Z,20.80
2018-07-05T22:57:09.639Z,20.70
2018-07-05T22:59:42.864Z,20.70
2018-07-05T23:02:15.640Z,20.80
2018-07-05T23:04:48.244Z,20.70
2018-07-05T23:07:20.941Z,20.80
2018-07-05T23:09:53.957Z,20.80
2018-07-05T23:12:26.598Z,20.70
2018-07-05T23:14:59.306Z,20.60
2018-07-05T23:17:31.892Z,20.60
2018-07-05T23:20:05.185Z,20.50
2018-07-05T23:22:37.718Z,20.50
2018-07-05T23:25:10.819Z,20.50
2018-07-05T23:27:43.405Z,20.30
2018-07-05T23:30:16.123Z,20.30
2018-07-05T23:32:48.764Z,20.30
2018-07-05T23:35:21.384Z,20.20
2018-07-05T23:37:53.977Z,20.20
2018-07-05T23:40:26.728Z,20.40
2018-07-05T23:42:59.226Z,20.40
2018-07-05T23:45:32.149Z,20.50
2018-07-05T23:48:04.879Z,20.40
2018-07-05T23:50:37.392Z,20.40
2018-07-05T23:53:10.057Z,20.50
2018-07-05T23:55:42.793Z,20.40
2018-07-05T23:58:15.441Z,20.30
